Terminal Aerodrome Forecast
Issued by NWS Newport/Morehead City, NC

Home | Current Version | Previous Version | Text Only | Print | Product List | Glossary Off
Versions: 1 2 3 4 5 6 7 8 9 10 11 12 13 14 15 16 17 18 19 20 21 22

562
FTUS42 KMHX 050534
TAFEWN
TAF
KEWN 050534Z 0506/0606 VRB04KT 6SM -RA SCT005 OVC020
     FM050730 VRB04KT 5SM -RA OVC005
     FM051330 32007KT P6SM VCSH SCT007 OVC015
     FM051500 33007KT P6SM OVC025
     FM051700 35007KT P6SM BKN050
     FM060200 03005KT P6SM SCT050 BKN100=

USA.gov is the U.S. government's official web portal to all federal, state and local government web resources and services.